createdAt,value
2022-12-01T00:00:26.629Z,23.93
2022-12-01T00:02:48.960Z,24.20
2022-12-01T00:05:11.370Z,24.95
2022-12-01T00:07:33.710Z,23.97
2022-12-01T00:10:14.587Z,23.40
2022-12-01T00:12:43.487Z,25.48
2022-12-01T00:15:06.280Z,25.50
2022-12-01T00:17:30.209Z,25.02
2022-12-01T00:19:52.490Z,25.08
2022-12-01T00:22:14.850Z,24.00
2022-12-01T00:24:37.121Z,25.97
2022-12-01T00:26:59.444Z,25.70
2022-12-01T00:29:21.731Z,28.20
2022-12-01T00:31:44.082Z,28.30
2022-12-01T00:34:11.028Z,29.60
2022-12-01T00:36:33.877Z,29.00
2022-12-01T00:38:56.395Z,31.17
2022-12-01T00:41:18.792Z,28.55
2022-12-01T00:43:41.142Z,28.42
2022-12-01T00:46:03.809Z,28.05
2022-12-01T00:48:26.223Z,28.90
2022-12-01T00:50:50.117Z,28.60
2022-12-01T00:53:12.430Z,28.17
2022-12-01T00:55:34.740Z,27.37
2022-12-01T00:57:57.043Z,26.35
2022-12-01T01:00:19.622Z,26.07
2022-12-01T01:02:42.010Z,25.70
2022-12-01T01:05:04.507Z,26.88
2022-12-01T01:07:26.892Z,28.70
2022-12-01T01:09:49.425Z,26.98
2022-12-01T01:12:11.865Z,27.70
2022-12-01T01:14:34.237Z,31.33
2022-12-01T01:16:56.622Z,31.17
2022-12-01T01:19:18.975Z,30.15
2022-12-01T01:21:41.353Z,32.08
2022-12-01T01:24:03.870Z,35.67
2022-12-01T01:26:29.531Z,34.88
2022-12-01T01:28:52.096Z,33.88
2022-12-01T01:31:17.967Z,34.42
2022-12-01T01:33:40.375Z,33.08
2022-12-01T01:36:02.873Z,32.30
2022-12-01T01:38:25.208Z,30.30
2022-12-01T01:40:47.528Z,33.13
2022-12-01T01:43:17.672Z,32.28
2022-12-01T01:45:39.994Z,32.70
2022-12-01T01:48:03.775Z,34.23
2022-12-01T01:50:27.298Z,33.70
2022-12-01T01:53:03.439Z,35.88
2022-12-01T01:55:25.746Z,34.42
2022-12-01T01:57:48.076Z,33.33
2022-12-01T02:00:16.402Z,33.83
2022-12-01T02:02:43.558Z,34.22
2022-12-01T02:05:11.097Z,34.33
2022-12-01T02:07:33.575Z,34.47
2022-12-01T02:09:56.210Z,32.42
2022-12-01T02:12:24.066Z,34.83
2022-12-01T02:15:14.208Z,34.03
2022-12-01T02:18:02.408Z,35.55
2022-12-01T02:20:38.985Z,34.25
2022-12-01T02:23:44.492Z,34.22
2022-12-01T02:26:50.190Z,34.58
2022-12-01T02:29:38.406Z,34.97
2022-12-01T02:32:02.037Z,36.08
2022-12-01T02:34:54.318Z,36.47
2022-12-01T02:37:47.700Z,40.20
2022-12-01T02:40:30.507Z,38.97
2022-12-01T02:43:30.332Z,38.70
2022-12-01T02:46:00.525Z,35.40
2022-12-01T02:48:34.299Z,34.47
2022-12-01T02:50:58.910Z,34.67
2022-12-01T02:53:21.604Z,34.65
2022-12-01T02:55:52.852Z,35.65
2022-12-01T02:58:15.344Z,35.70
2022-12-01T03:00:37.617Z,37.03
2022-12-01T03:03:11.933Z,35.90
2022-12-01T03:05:52.068Z,33.38
2022-12-01T03:08:35.590Z,33.42
2022-12-01T03:10:58.292Z,36.20
2022-12-01T03:13:51.515Z,38.75
2022-12-01T03:16:40.424Z,36.25
2022-12-01T03:19:32.722Z,39.15
2022-12-01T03:22:01.938Z,37.17
2022-12-01T03:24:25.700Z,36.78
2022-12-01T03:26:51.897Z,35.38
2022-12-01T03:29:18.039Z,34.85
2022-12-01T03:31:45.809Z,36.42
2022-12-01T03:34:14.261Z,34.97
2022-12-01T03:36:41.119Z,33.75
2022-12-01T03:39:07.091Z,34.45
2022-12-01T03:41:35.491Z,33.35
2022-12-01T03:44:08.942Z,33.03
2022-12-01T03:46:56.891Z,33.22
2022-12-01T03:49:19.212Z,32.50
2022-12-01T03:51:50.624Z,31.63
2022-12-01T03:54:21.554Z,32.22
2022-12-01T03:56:51.205Z,30.00
2022-12-01T03:59:13.473Z,32.33
2022-12-01T04:01:35.893Z,32.08
2022-12-01T04:04:08.016Z,33.08
2022-12-01T04:06:30.300Z,32.70
2022-12-01T04:08:52.592Z,32.70
2022-12-01T04:11:35.123Z,31.50
2022-12-01T04:13:57.416Z,32.45
2022-12-01T04:16:19.787Z,34.23
2022-12-01T04:18:42.097Z,34.35
2022-12-01T04:21:04.580Z,32.38
2022-12-01T04:23:45.658Z,31.67
2022-12-01T04:26:12.641Z,30.40
2022-12-01T04:28:37.944Z,30.35
2022-12-01T04:31:00.333Z,30.38
2022-12-01T04:33:22.685Z,29.80
2022-12-01T04:35:44.956Z,31.27
2022-12-01T04:38:07.264Z,31.98
2022-12-01T04:40:29.543Z,33.57
2022-12-01T04:42:51.819Z,37.47
2022-12-01T04:45:14.142Z,33.72
2022-12-01T04:47:36.446Z,32.67
2022-12-01T04:49:58.816Z,35.07
2022-12-01T04:52:21.107Z,33.03
2022-12-01T04:54:43.396Z,31.17
2022-12-01T04:57:05.782Z,34.47
2022-12-01T04:59:28.058Z,32.33
2022-12-01T05:01:50.528Z,33.03
2022-12-01T05:04:13.565Z,30.80
2022-12-01T05:06:35.945Z,31.20
2022-12-01T05:08:59.972Z,31.48
2022-12-01T05:11:23.812Z,29.70
2022-12-01T05:13:47.297Z,29.20
2022-12-01T05:16:24.217Z,30.17
2022-12-01T05:18:50.886Z,27.95
2022-12-01T05:21:13.190Z,29.10
2022-12-01T05:23:37.039Z,27.60
2022-12-01T05:25:59.463Z,27.25
2022-12-01T05:28:23.229Z,29.25
2022-12-01T05:30:45.554Z,29.52
2022-12-01T05:33:07.920Z,29.33
2022-12-01T05:35:30.267Z,33.23
2022-12-01T05:37:52.585Z,32.13
2022-12-01T05:40:14.932Z,30.47
2022-12-01T05:42:37.242Z,29.50
2022-12-01T05:44:59.516Z,29.50
2022-12-01T05:47:21.802Z,29.70
2022-12-01T05:49:44.094Z,27.53
2022-12-01T05:52:06.402Z,28.47
2022-12-01T05:54:30.486Z,28.47
2022-12-01T05:56:52.811Z,29.40
2022-12-01T05:59:15.116Z,29.77
2022-12-01T06:01:37.431Z,27.30
2022-12-01T06:03:59.817Z,30.07
2022-12-01T06:06:22.447Z,27.95
2022-12-01T06:08:44.721Z,28.30
2022-12-01T06:11:07.046Z,29.47
2022-12-01T06:13:29.338Z,29.92
2022-12-01T06:16:03.244Z,28.53
2022-12-01T06:18:26.835Z,28.55
2022-12-01T06:20:49.124Z,29.40
2022-12-01T06:23:11.417Z,29.43
2022-12-01T06:25:33.803Z,29.53
2022-12-01T06:27:59.824Z,30.15
2022-12-01T06:30:22.129Z,28.58
2022-12-01T06:32:44.436Z,29.47
2022-12-01T06:35:07.320Z,27.13
2022-12-01T06:37:29.605Z,25.45
2022-12-01T06:39:52.647Z,26.67
2022-12-01T06:42:15.383Z,28.35
2022-12-01T06:44:38.081Z,26.35
2022-12-01T06:47:00.396Z,28.30
2022-12-01T06:49:22.692Z,27.63
2022-12-01T06:51:45.263Z,28.47
2022-12-01T06:54:07.822Z,29.35
2022-12-01T06:56:30.170Z,27.23
2022-12-01T06:58:53.044Z,28.63
2022-12-01T07:03:39.161Z,27.88
2022-12-01T07:06:01.851Z,31.27
2022-12-01T07:08:24.808Z,30.30
2022-12-01T07:10:50.343Z,29.33
2022-12-01T07:13:12.635Z,29.45
2022-12-01T07:15:34.921Z,27.23
2022-12-01T07:17:57.295Z,28.37
2022-12-01T07:20:19.580Z,27.52
2022-12-01T07:22:43.111Z,27.73
2022-12-01T07:25:06.756Z,25.52
2022-12-01T07:27:32.307Z,26.60
2022-12-01T07:29:54.576Z,24.17
2022-12-01T07:32:16.943Z,22.93
2022-12-01T07:34:39.283Z,25.03
2022-12-01T07:37:01.601Z,24.43
2022-12-01T07:39:23.885Z,26.77
2022-12-01T07:41:46.182Z,26.30
2022-12-01T07:44:10.870Z,25.10
2022-12-01T07:46:26.307Z,27.10
2022-12-01T07:48:30.243Z,25.45
2022-12-01T07:50:32.178Z,24.27
2022-12-01T07:52:34.634Z,24.70
2022-12-01T07:54:36.592Z,26.02
2022-12-01T07:56:38.584Z,26.48
2022-12-01T07:58:40.576Z,27.52
2022-12-01T08:00:42.640Z,29.35
2022-12-01T08:03:03.392Z,28.48
2022-12-01T08:05:24.115Z,30.45
2022-12-01T08:07:46.467Z,29.40
2022-12-01T08:10:09.073Z,27.02
2022-12-01T08:12:31.398Z,24.63
2022-12-01T08:14:53.771Z,24.73
2022-12-01T08:17:16.099Z,26.77
2022-12-01T08:19:38.423Z,26.17
2022-12-01T08:22:00.702Z,25.20
2022-12-01T08:24:23.151Z,27.10
2022-12-01T08:26:45.476Z,25.77
2022-12-01T08:29:07.785Z,27.30
2022-12-01T08:31:33.160Z,25.37
2022-12-01T08:33:55.723Z,27.15
2022-12-01T08:36:18.321Z,27.13
2022-12-01T08:38:43.184Z,27.23
2022-12-01T08:41:07.799Z,26.48
2022-12-01T08:43:55.786Z,31.13
2022-12-01T08:46:12.991Z,30.52
2022-12-01T08:48:35.748Z,27.73
2022-12-01T08:51:15.753Z,25.88
2022-12-01T08:53:45.333Z,23.20
2022-12-01T08:56:17.919Z,23.02
2022-12-01T08:58:40.234Z,22.83
2022-12-01T09:01:10.498Z,23.08
2022-12-01T09:03:33.842Z,23.30
2022-12-01T09:06:05.199Z,23.67
2022-12-01T09:08:34.164Z,22.73
2022-12-01T09:10:56.449Z,23.17
2022-12-01T09:13:18.793Z,24.10
2022-12-01T09:15:41.092Z,21.57
2022-12-01T09:18:03.379Z,22.73
2022-12-01T09:20:25.702Z,22.90
2022-12-01T09:22:48.002Z,23.77
2022-12-01T09:25:14.776Z,22.10
2022-12-01T09:27:37.076Z,23.67
2022-12-01T09:29:59.378Z,23.20
2022-12-01T09:32:21.632Z,25.27
2022-12-01T09:34:43.922Z,26.20
2022-12-01T09:37:06.973Z,25.30
2022-12-01T09:39:29.795Z,24.58
2022-12-01T09:42:10.784Z,25.33
2022-12-01T09:44:41.809Z,25.00
2022-12-01T09:47:11.640Z,24.00
2022-12-01T09:50:00.945Z,22.27
2022-12-01T09:52:25.264Z,21.05
2022-12-01T09:54:47.794Z,22.25
2022-12-01T09:57:35.381Z,21.13
2022-12-01T09:59:41.775Z,21.25
2022-12-01T10:01:46.736Z,22.13
2022-12-01T10:03:56.169Z,21.42
2022-12-01T10:06:27.430Z,19.98
2022-12-01T10:08:36.202Z,19.02
2022-12-01T10:10:49.331Z,19.17
2022-12-01T10:12:52.231Z,19.35
2022-12-01T10:15:22.279Z,18.98
2022-12-01T10:17:57.220Z,17.80
2022-12-01T10:20:40.355Z,17.65
2022-12-01T10:22:49.558Z,16.83
2022-12-01T10:25:22.811Z,18.17
2022-12-01T10:27:38.819Z,17.43
2022-12-01T10:30:24.768Z,16.58
2022-12-01T10:32:38.791Z,16.17
2022-12-01T10:34:41.909Z,16.08
2022-12-01T10:36:44.771Z,15.98
2022-12-01T10:38:46.897Z,16.30
2022-12-01T10:40:50.879Z,15.75
2022-12-01T10:42:53.217Z,16.50
2022-12-01T10:45:00.863Z,16.23
2022-12-01T10:47:03.478Z,15.10
2022-12-01T10:49:11.963Z,16.50
2022-12-01T10:51:17.103Z,16.73
2022-12-01T10:53:23.679Z,16.27
2022-12-01T10:55:30.685Z,18.23
2022-12-01T10:57:33.680Z,16.15
2022-12-01T11:00:03.094Z,16.60
2022-12-01T11:02:14.297Z,16.63
2022-12-01T11:04:45.187Z,16.88
2022-12-01T11:06:51.125Z,17.05
2022-12-01T11:09:02.722Z,16.95
2022-12-01T11:11:06.298Z,16.67
2022-12-01T11:13:22.870Z,17.40
2022-12-01T11:15:32.468Z,16.88
2022-12-01T11:17:44.703Z,16.55
2022-12-01T11:21:53.401Z,16.48
2022-12-01T11:23:56.708Z,16.30
2022-12-01T11:26:05.380Z,16.55
2022-12-01T11:28:09.181Z,16.65
2022-12-01T11:30:26.459Z,17.58
2022-12-01T11:32:35.434Z,14.93
2022-12-01T11:34:38.417Z,14.93
2022-12-01T11:36:47.291Z,15.70
2022-12-01T11:38:50.693Z,14.32
2022-12-01T11:40:55.162Z,14.50
2022-12-01T11:43:01.096Z,15.20
2022-12-01T11:45:21.683Z,14.43
2022-12-01T11:47:26.181Z,14.60
2022-12-01T11:49:30.152Z,14.73
2022-12-01T11:51:37.695Z,13.27
2022-12-01T11:53:44.058Z,15.00
2022-12-01T11:55:48.784Z,14.82
2022-12-01T11:57:54.957Z,14.88
2022-12-01T11:59:57.795Z,16.00
2022-12-01T12:02:30.782Z,15.02
2022-12-01T12:05:01.513Z,14.18
2022-12-01T12:07:43.173Z,15.35
2022-12-01T12:10:08.392Z,14.93
2022-12-01T12:12:21.114Z,15.82
2022-12-01T12:14:38.124Z,15.63
2022-12-01T12:17:16.249Z,16.90
2022-12-01T12:20:06.281Z,16.42
2022-12-01T12:22:26.590Z,16.65
2022-12-01T12:24:59.672Z,16.10
2022-12-01T12:27:58.005Z,15.87
2022-12-01T12:30:18.927Z,16.42
2022-12-01T12:32:57.686Z,17.35
2022-12-01T12:35:06.232Z,16.98
2022-12-01T12:37:48.262Z,17.67
2022-12-01T12:40:25.720Z,18.17
2022-12-01T12:42:50.457Z,17.52
2022-12-01T12:45:20.116Z,19.15
2022-12-01T12:48:07.956Z,20.30
2022-12-01T12:50:50.730Z,19.75
2022-12-01T12:53:01.597Z,19.55
2022-12-01T12:55:26.599Z,19.75
2022-12-01T12:57:35.667Z,18.83
2022-12-01T12:59:42.900Z,20.05
2022-12-01T13:02:06.591Z,19.85
2022-12-01T13:04:58.589Z,19.60
2022-12-01T13:07:08.536Z,19.42
2022-12-01T13:09:27.154Z,19.70
2022-12-01T13:12:15.929Z,20.42
2022-12-01T13:14:36.766Z,19.13
2022-12-01T13:16:43.082Z,18.20
2022-12-01T13:18:51.788Z,18.70
2022-12-01T13:20:55.781Z,19.67
2022-12-01T13:22:59.391Z,19.10
2022-12-01T13:25:02.544Z,19.63
2022-12-01T13:27:19.733Z,19.13
2022-12-01T13:29:24.049Z,18.05
2022-12-01T13:31:26.409Z,18.00
2022-12-01T13:33:28.742Z,18.08
2022-12-01T13:35:36.882Z,17.35
2022-12-01T13:37:39.172Z,18.77
2022-12-01T13:39:41.584Z,19.15
2022-12-01T13:41:44.597Z,17.90
2022-12-01T13:44:22.638Z,17.48
2022-12-01T13:46:42.475Z,17.58
2022-12-01T13:48:47.704Z,19.70
2022-12-01T13:50:59.168Z,19.02
2022-12-01T13:53:19.783Z,19.05
2022-12-01T13:55:28.032Z,20.02
2022-12-01T13:57:49.372Z,20.35
2022-12-01T14:00:00.536Z,19.58
2022-12-01T14:02:20.749Z,20.35
2022-12-01T14:04:26.159Z,20.08
2022-12-01T14:06:31.236Z,19.50
2022-12-01T14:08:56.243Z,17.58
2022-12-01T14:11:25.867Z,16.63
2022-12-01T14:14:00.260Z,18.02
2022-12-01T14:16:22.791Z,17.83
2022-12-01T14:18:57.602Z,19.70
2022-12-01T14:21:44.876Z,17.90
2022-12-01T14:24:07.450Z,17.10
2022-12-01T14:26:30.348Z,16.67
2022-12-01T14:28:55.772Z,17.38
2022-12-01T14:31:18.176Z,17.55
2022-12-01T14:33:48.958Z,16.10
2022-12-01T14:36:17.160Z,17.15
2022-12-01T14:38:39.453Z,17.38
2022-12-01T14:41:26.268Z,16.40
2022-12-01T14:44:04.837Z,18.77
2022-12-01T14:46:27.327Z,20.70
2022-12-01T14:48:49.675Z,22.38
2022-12-01T14:51:27.633Z,22.93
2022-12-01T14:53:50.256Z,21.95
2022-12-01T14:56:16.676Z,19.92
2022-12-01T14:58:39.013Z,19.65
2022-12-01T15:01:08.474Z,18.67
2022-12-01T15:03:43.019Z,18.17
2022-12-01T15:06:05.682Z,15.57
2022-12-01T15:09:04.146Z,14.50
2022-12-01T15:11:25.590Z,14.45
2022-12-01T15:13:51.032Z,16.33
2022-12-01T15:16:19.329Z,14.10
2022-12-01T15:18:41.690Z,12.43
2022-12-01T15:21:16.427Z,12.10
2022-12-01T15:24:03.397Z,11.75
2022-12-01T15:26:34.774Z,10.18
2022-12-01T15:29:13.188Z,10.57
2022-12-01T15:31:35.525Z,11.70
2022-12-01T15:33:57.885Z,11.32
2022-12-01T15:36:20.203Z,12.57
2022-12-01T15:38:42.932Z,13.20
2022-12-01T15:43:59.198Z,12.80
2022-12-01T15:46:30.835Z,12.55
2022-12-01T15:49:18.999Z,12.80
2022-12-01T15:51:41.283Z,12.07
2022-12-01T15:54:03.656Z,12.83
2022-12-01T15:56:36.206Z,13.23
2022-12-01T15:59:29.025Z,14.07
2022-12-01T16:01:51.334Z,13.68
2022-12-01T16:04:28.281Z,14.10
2022-12-01T16:07:09.809Z,14.95
2022-12-01T16:09:54.926Z,13.88
2022-12-01T16:12:17.699Z,12.18
2022-12-01T16:15:13.803Z,12.43
2022-12-01T16:17:49.505Z,12.18
2022-12-01T16:20:22.051Z,12.23
2022-12-01T16:22:51.155Z,10.70
2022-12-01T16:25:34.651Z,11.45
2022-12-01T16:27:56.973Z,12.18
2022-12-01T16:30:21.977Z,13.63
2022-12-01T16:32:44.394Z,13.25
2022-12-01T16:35:24.411Z,12.15
2022-12-01T16:37:46.734Z,12.85
2022-12-01T16:40:11.527Z,13.77
2022-12-01T16:42:33.809Z,13.57
2022-12-01T16:44:56.126Z,13.43
2022-12-01T16:47:23.931Z,13.95
2022-12-01T16:49:46.467Z,13.45
2022-12-01T16:52:36.466Z,14.35
2022-12-01T16:54:51.362Z,13.63
2022-12-01T16:57:13.986Z,13.98
2022-12-01T16:59:36.361Z,13.40
2022-12-01T17:01:59.395Z,13.88
2022-12-01T17:04:21.689Z,13.98
2022-12-01T17:06:44.015Z,13.47
2022-12-01T17:09:06.448Z,13.30
2022-12-01T17:11:28.772Z,14.00
2022-12-01T17:13:51.136Z,14.23
2022-12-01T17:16:18.142Z,14.65
2022-12-01T17:18:41.230Z,14.48
2022-12-01T17:21:09.559Z,13.63
2022-12-01T17:23:33.057Z,13.95
2022-12-01T17:25:55.369Z,15.05
2022-12-01T17:28:17.929Z,14.87
2022-12-01T17:30:40.334Z,15.60
2022-12-01T17:33:02.684Z,17.63
2022-12-01T17:35:24.970Z,16.73
2022-12-01T17:37:47.307Z,19.17
2022-12-01T17:40:13.896Z,24.33
2022-12-01T17:42:36.209Z,25.52
2022-12-01T17:44:58.870Z,27.35
2022-12-01T17:47:21.193Z,24.70
2022-12-01T17:49:43.580Z,24.90
2022-12-01T17:52:06.795Z,24.42
2022-12-01T17:56:51.424Z,23.00
2022-12-01T17:59:13.978Z,22.80
2022-12-01T18:01:36.405Z,21.85
2022-12-01T18:03:59.115Z,24.98
2022-12-01T18:06:21.486Z,22.85
2022-12-01T18:08:43.876Z,24.63
2022-12-01T18:11:08.017Z,22.77
2022-12-01T18:13:30.353Z,22.02
2022-12-01T18:15:52.748Z,25.10
2022-12-01T18:18:15.067Z,21.90
2022-12-01T18:20:41.694Z,19.92
2022-12-01T18:23:03.978Z,21.60
2022-12-01T18:25:26.280Z,21.47
2022-12-01T18:27:48.591Z,20.75
2022-12-01T18:30:11.730Z,20.40
2022-12-01T18:32:34.033Z,20.63
2022-12-01T18:34:56.337Z,19.33
2022-12-01T18:37:18.646Z,17.47
2022-12-01T18:39:40.969Z,18.87
2022-12-01T18:42:03.285Z,19.03
2022-12-01T18:44:25.586Z,17.17
2022-12-01T18:46:47.961Z,16.33
2022-12-01T18:49:10.320Z,17.25
2022-12-01T18:51:37.078Z,17.58
2022-12-01T18:54:00.409Z,18.65
2022-12-01T18:56:22.739Z,19.23
2022-12-01T18:58:45.109Z,18.25
2022-12-01T19:01:25.932Z,20.83
2022-12-01T19:03:48.285Z,21.77
2022-12-01T19:06:12.638Z,20.80
2022-12-01T19:08:34.955Z,20.52
2022-12-01T19:11:01.470Z,20.07
2022-12-01T19:13:23.769Z,20.83
2022-12-01T19:15:46.103Z,20.37
2022-12-01T19:18:08.459Z,21.03
2022-12-01T19:20:30.809Z,22.10
2022-12-01T19:22:53.159Z,20.95
2022-12-01T19:25:15.601Z,21.43
2022-12-01T19:27:38.219Z,21.10
2022-12-01T19:30:00.511Z,23.38
2022-12-01T19:32:23.037Z,23.50
2022-12-01T19:34:45.597Z,22.25
2022-12-01T19:37:11.075Z,23.65
2022-12-01T19:39:33.385Z,24.85
2022-12-01T19:41:57.361Z,25.03
2022-12-01T19:44:19.675Z,23.10
2022-12-01T19:46:42.048Z,23.47
2022-12-01T19:49:05.016Z,24.30
2022-12-01T19:51:38.291Z,24.92
2022-12-01T19:54:00.700Z,23.77
2022-12-01T19:56:23.213Z,25.90
2022-12-01T19:58:45.622Z,25.35
2022-12-01T20:01:13.144Z,25.23
2022-12-01T20:03:35.857Z,25.08
2022-12-01T20:06:06.902Z,24.73
2022-12-01T20:08:29.188Z,27.58
2022-12-01T20:10:51.741Z,29.87
2022-12-01T20:13:14.082Z,31.52
2022-12-01T20:15:36.447Z,30.58
2022-12-01T20:17:58.736Z,31.90
2022-12-01T20:20:21.086Z,30.90
2022-12-01T20:22:43.358Z,32.07
2022-12-01T20:25:06.550Z,32.42
2022-12-01T20:27:29.199Z,30.70
2022-12-01T20:29:51.520Z,30.98
2022-12-01T20:32:13.950Z,27.83
2022-12-01T20:34:36.592Z,27.35
2022-12-01T20:36:59.218Z,28.65
2022-12-01T20:39:21.728Z,28.52
2022-12-01T20:41:44.595Z,28.55
2022-12-01T20:44:07.877Z,28.02
2022-12-01T20:46:30.467Z,28.45
2022-12-01T20:48:52.821Z,27.30
2022-12-01T20:51:15.274Z,27.53
2022-12-01T20:53:37.574Z,30.02
2022-12-01T20:56:05.407Z,30.97
2022-12-01T20:58:27.748Z,31.15
2022-12-01T21:00:50.158Z,32.72
2022-12-01T21:03:12.957Z,35.38
2022-12-01T21:05:37.940Z,39.13
2022-12-01T21:08:01.263Z,35.17
2022-12-01T21:10:23.656Z,35.42
2022-12-01T21:13:08.129Z,35.37
2022-12-01T21:15:31.444Z,34.30
2022-12-01T21:17:59.617Z,31.33
2022-12-01T21:20:31.030Z,32.00
2022-12-01T21:22:53.752Z,32.65
2022-12-01T21:25:22.340Z,33.40
2022-12-01T21:27:45.831Z,30.83
2022-12-01T21:30:26.386Z,32.17
2022-12-01T21:32:49.334Z,32.10
2022-12-01T21:35:25.061Z,30.50
2022-12-01T21:37:48.155Z,30.45
2022-12-01T21:40:36.778Z,28.67
2022-12-01T21:43:05.472Z,28.45
2022-12-01T21:45:30.373Z,25.50
2022-12-01T21:47:53.218Z,26.48
2022-12-01T21:50:21.104Z,25.63
2022-12-01T21:52:43.423Z,25.90
2022-12-01T21:55:14.459Z,27.37
2022-12-01T21:57:42.793Z,28.58
2022-12-01T22:00:26.679Z,29.83
2022-12-01T22:02:51.460Z,30.38
2022-12-01T22:05:42.901Z,26.52
2022-12-01T22:08:14.121Z,25.00
2022-12-01T22:11:11.673Z,24.98
2022-12-01T22:13:48.804Z,23.27
2022-12-01T22:16:30.006Z,25.58
2022-12-01T22:18:57.750Z,25.65
2022-12-01T22:21:23.144Z,25.52
2022-12-01T22:23:45.368Z,25.88
2022-12-01T22:26:21.179Z,26.73
2022-12-01T22:28:43.466Z,25.83
2022-12-01T22:31:15.763Z,27.10
2022-12-01T22:33:38.202Z,26.38
2022-12-01T22:36:00.525Z,27.98
2022-12-01T22:38:36.705Z,26.73
2022-12-01T22:41:05.689Z,27.40
2022-12-01T22:43:42.036Z,27.63
2022-12-01T22:46:27.537Z,27.15
2022-12-01T22:49:03.405Z,27.90
2022-12-01T22:51:38.500Z,26.27
2022-12-01T22:54:49.240Z,28.33
2022-12-01T22:57:33.028Z,28.08
2022-12-01T22:59:55.411Z,29.83
2022-12-01T23:02:27.401Z,28.70
2022-12-01T23:04:56.951Z,27.67
2022-12-01T23:07:36.768Z,27.48
2022-12-01T23:10:11.123Z,28.80
2022-12-01T23:12:34.516Z,28.98
2022-12-01T23:15:00.743Z,31.40
2022-12-01T23:17:31.007Z,27.73
2022-12-01T23:20:14.331Z,26.40
2022-12-01T23:22:37.950Z,26.15
2022-12-01T23:25:01.184Z,23.55
2022-12-01T23:29:45.740Z,23.02
2022-12-01T23:32:08.047Z,23.37
2022-12-01T23:34:30.379Z,22.60
2022-12-01T23:36:52.699Z,23.97
2022-12-01T23:39:16.222Z,24.20
2022-12-01T23:41:46.515Z,22.40
2022-12-01T23:44:39.008Z,23.23
2022-12-01T23:47:01.344Z,23.52
2022-12-01T23:49:27.800Z,22.23
2022-12-01T23:51:55.047Z,23.45
2022-12-01T23:54:33.470Z,24.60
2022-12-01T23:57:01.633Z,25.02
2022-12-01T23:59:24.001Z,24.48
